sensor_id;sensor_type;location;lat;lon;timestamp;pressure;altitude;pressure_sealevel;temperature;humidity
19023;BME280;35226;48.606;8.858;2023-07-31T00:00:00;96386.88;;;15.37;100.00
19023;BME280;35226;48.606;8.858;2023-07-31T00:02:26;96382.09;;;15.28;100.00
19023;BME280;35226;48.606;8.858;2023-07-31T00:04:51;96394.00;;;15.29;100.00
19023;BME280;35226;48.606;8.858;2023-07-31T00:07:16;96385.44;;;15.17;100.00
19023;BME280;35226;48.606;8.858;2023-07-31T00:09:42;96390.81;;;15.21;100.00
19023;BME280;35226;48.606;8.858;2023-07-31T00:12:08;96386.38;;;15.14;100.00
19023;BME280;35226;48.606;8.858;2023-07-31T00:14:33;96384.53;;;15.11;100.00
19023;BME280;35226;48.606;8.858;2023-07-31T00:16:58;96385.28;;;15.12;100.00
19023;BME280;35226;48.606;8.858;2023-07-31T00:19:24;96393.94;;;15.14;100.00
19023;BME280;35226;48.606;8.858;2023-07-31T00:21:49;96391.50;;;15.07;100.00
19023;BME280;35226;48.606;8.858;2023-07-31T00:24:15;96395.22;;;15.04;100.00
19023;BME280;35226;48.606;8.858;2023-07-31T00:26:40;96397.25;;;15.03;100.00
19023;BME280;35226;48.606;8.858;2023-07-31T00:29:06;96391.38;;;15.01;100.00
19023;BME280;35226;48.606;8.858;2023-07-31T00:31:31;96389.25;;;14.96;100.00
19023;BME280;35226;48.606;8.858;2023-07-31T00:33:57;96392.03;;;14.96;100.00
19023;BME280;35226;48.606;8.858;2023-07-31T00:36:22;96398.22;;;14.91;100.00
19023;BME280;35226;48.606;8.858;2023-07-31T00:38:48;96395.28;;;14.95;100.00
19023;BME280;35226;48.606;8.858;2023-07-31T00:41:14;96392.06;;;14.87;100.00
19023;BME280;35226;48.606;8.858;2023-07-31T00:43:39;96394.34;;;14.89;100.00
19023;BME280;35226;48.606;8.858;2023-07-31T00:46:06;96393.59;;;14.88;100.00
19023;BME280;35226;48.606;8.858;2023-07-31T00:48:32;96388.03;;;14.88;100.00
19023;BME280;35226;48.606;8.858;2023-07-31T00:50:58;96392.53;;;14.86;100.00
19023;BME280;35226;48.606;8.858;2023-07-31T00:53:24;96390.81;;;14.88;100.00
19023;BME280;35226;48.606;8.858;2023-07-31T00:55:50;96388.97;;;14.85;100.00
19023;BME280;35226;48.606;8.858;2023-07-31T00:58:16;96385.25;;;14.88;100.00
19023;BME280;35226;48.606;8.858;2023-07-31T01:00:41;96390.56;;;14.77;100.00
19023;BME280;35226;48.606;8.858;2023-07-31T01:03:07;96387.16;;;14.73;100.00
19023;BME280;35226;48.606;8.858;2023-07-31T01:06:01;96385.91;;;14.74;100.00
19023;BME280;35226;48.606;8.858;2023-07-31T01:08:39;96384.38;;;14.73;100.00
19023;BME280;35226;48.606;8.858;2023-07-31T01:11:28;96377.72;;;14.70;100.00
19023;BME280;35226;48.606;8.858;2023-07-31T01:13:57;96372.47;;;14.72;100.00
19023;BME280;35226;48.606;8.858;2023-07-31T01:16:24;96367.56;;;14.67;100.00
19023;BME280;35226;48.606;8.858;2023-07-31T01:18:49;96366.50;;;14.65;100.00
19023;BME280;35226;48.606;8.858;2023-07-31T01:24:23;96369.72;;;14.63;100.00
19023;BME280;35226;48.606;8.858;2023-07-31T01:27:01;96375.94;;;14.58;100.00
19023;BME280;35226;48.606;8.858;2023-07-31T01:29:42;96374.41;;;14.57;100.00
19023;BME280;35226;48.606;8.858;2023-07-31T01:32:09;96366.84;;;14.49;100.00
19023;BME280;35226;48.606;8.858;2023-07-31T01:34:36;96361.31;;;14.39;100.00
19023;BME280;35226;48.606;8.858;2023-07-31T01:37:02;96363.16;;;14.42;100.00
19023;BME280;35226;48.606;8.858;2023-07-31T01:39:28;96362.53;;;14.38;100.00
19023;BME280;35226;48.606;8.858;2023-07-31T01:41:54;96356.81;;;14.33;100.00
19023;BME280;35226;48.606;8.858;2023-07-31T01:44:20;96347.25;;;14.34;100.00
19023;BME280;35226;48.606;8.858;2023-07-31T01:46:45;96352.19;;;14.30;100.00
19023;BME280;35226;48.606;8.858;2023-07-31T01:49:10;96346.34;;;14.28;100.00
19023;BME280;35226;48.606;8.858;2023-07-31T01:51:37;96353.59;;;14.25;100.00
19023;BME280;35226;48.606;8.858;2023-07-31T01:54:02;96359.03;;;14.20;100.00
19023;BME280;35226;48.606;8.858;2023-07-31T01:56:28;96361.50;;;14.18;100.00
19023;BME280;35226;48.606;8.858;2023-07-31T01:58:55;96358.25;;;14.10;100.00
19023;BME280;35226;48.606;8.858;2023-07-31T02:01:20;96352.38;;;14.17;100.00
19023;BME280;35226;48.606;8.858;2023-07-31T02:03:46;96352.72;;;14.10;100.00
19023;BME280;35226;48.606;8.858;2023-07-31T02:06:13;96342.34;;;14.11;100.00
19023;BME280;35226;48.606;8.858;2023-07-31T02:08:39;96342.06;;;14.08;100.00
19023;BME280;35226;48.606;8.858;2023-07-31T02:11:04;96340.19;;;14.15;100.00
19023;BME280;35226;48.606;8.858;2023-07-31T02:13:30;96344.84;;;14.08;100.00
19023;BME280;35226;48.606;8.858;2023-07-31T02:15:56;96342.66;;;14.13;100.00
19023;BME280;35226;48.606;8.858;2023-07-31T02:18:21;96328.44;;;14.11;100.00
19023;BME280;35226;48.606;8.858;2023-07-31T02:20:51;96323.34;;;14.18;100.00
19023;BME280;35226;48.606;8.858;2023-07-31T02:23:20;96322.75;;;14.14;100.00
19023;BME280;35226;48.606;8.858;2023-07-31T02:25:46;96323.50;;;14.15;100.00
19023;BME280;35226;48.606;8.858;2023-07-31T02:28:12;96323.81;;;14.17;100.00
19023;BME280;35226;48.606;8.858;2023-07-31T02:30:38;96321.97;;;14.14;100.00
19023;BME280;35226;48.606;8.858;2023-07-31T02:33:04;96324.28;;;14.15;100.00
19023;BME280;35226;48.606;8.858;2023-07-31T02:35:30;96323.03;;;14.16;100.00
19023;BME280;35226;48.606;8.858;2023-07-31T02:37:56;96321.19;;;14.13;100.00
19023;BME280;35226;48.606;8.858;2023-07-31T02:40:21;96321.81;;;14.17;100.00
19023;BME280;35226;48.606;8.858;2023-07-31T02:42:47;96315.81;;;14.10;100.00
19023;BME280;35226;48.606;8.858;2023-07-31T02:45:13;96320.28;;;14.07;100.00
19023;BME280;35226;48.606;8.858;2023-07-31T02:47:38;96309.97;;;13.98;100.00
19023;BME280;35226;48.606;8.858;2023-07-31T02:50:04;96308.25;;;13.92;100.00
19023;BME280;35226;48.606;8.858;2023-07-31T02:52:30;96307.22;;;13.89;100.00
19023;BME280;35226;48.606;8.858;2023-07-31T02:54:55;96302.56;;;13.86;100.00
19023;BME280;35226;48.606;8.858;2023-07-31T02:57:21;96296.56;;;13.88;100.00
19023;BME280;35226;48.606;8.858;2023-07-31T02:59:46;96303.50;;;13.83;100.00
19023;BME280;35226;48.606;8.858;2023-07-31T03:02:12;96303.34;;;13.87;100.00
19023;BME280;35226;48.606;8.858;2023-07-31T03:04:38;96303.03;;;13.85;100.00
19023;BME280;35226;48.606;8.858;2023-07-31T03:07:04;96297.78;;;13.87;100.00
19023;BME280;35226;48.606;8.858;2023-07-31T03:09:29;96305.69;;;13.79;100.00
19023;BME280;35226;48.606;8.858;2023-07-31T03:11:55;96311.38;;;13.76;100.00
19023;BME280;35226;48.606;8.858;2023-07-31T03:14:20;96304.91;;;13.79;100.00
19023;BME280;35226;48.606;8.858;2023-07-31T03:16:46;96298.56;;;13.78;100.00
19023;BME280;35226;48.606;8.858;2023-07-31T03:19:11;96298.56;;;13.78;100.00
19023;BME280;35226;48.606;8.858;2023-07-31T03:21:37;96300.59;;;13.78;100.00
19023;BME280;35226;48.606;8.858;2023-07-31T03:24:02;96305.50;;;13.83;100.00
19023;BME280;35226;48.606;8.858;2023-07-31T03:26:31;96299.81;;;13.77;100.00
19023;BME280;35226;48.606;8.858;2023-07-31T03:28:56;96300.91;;;13.80;100.00
19023;BME280;35226;48.606;8.858;2023-07-31T03:31:22;96297.81;;;13.78;100.00
19023;BME280;35226;48.606;8.858;2023-07-31T03:33:47;96306.59;;;13.76;100.00
19023;BME280;35226;48.606;8.858;2023-07-31T03:36:12;96303.50;;;13.74;100.00
19023;BME280;35226;48.606;8.858;2023-07-31T03:38:38;96304.28;;;13.75;100.00
19023;BME280;35226;48.606;8.858;2023-07-31T03:41:03;96299.50;;;13.75;100.00
19023;BME280;35226;48.606;8.858;2023-07-31T03:43:31;96307.50;;;13.73;100.00
19023;BME280;35226;48.606;8.858;2023-07-31T03:45:58;96314.31;;;13.72;100.00
19023;BME280;35226;48.606;8.858;2023-07-31T03:48:24;96307.06;;;13.75;100.00
19023;BME280;35226;48.606;8.858;2023-07-31T03:50:49;96302.13;;;13.79;100.00
19023;BME280;35226;48.606;8.858;2023-07-31T03:53:15;96303.94;;;13.82;100.00
19023;BME280;35226;48.606;8.858;2023-07-31T03:55:41;96296.88;;;13.81;100.00
19023;BME280;35226;48.606;8.858;2023-07-31T03:58:06;96296.09;;;13.89;100.00
19023;BME280;35226;48.606;8.858;2023-07-31T04:00:32;96301.34;;;13.87;100.00
19023;BME280;35226;48.606;8.858;2023-07-31T04:02:57;96294.88;;;13.90;100.00
19023;BME280;35226;48.606;8.858;2023-07-31T04:05:22;96291.13;;;13.93;100.00
19023;BME280;35226;48.606;8.858;2023-07-31T04:07:48;96292.22;;;13.96;100.00
19023;BME280;35226;48.606;8.858;2023-07-31T04:10:13;96284.19;;;13.98;100.00
19023;BME280;35226;48.606;8.858;2023-07-31T04:12:39;96299.31;;;13.97;100.00
19023;BME280;35226;48.606;8.858;2023-07-31T04:15:05;96283.88;;;14.05;100.00
19023;BME280;35226;48.606;8.858;2023-07-31T04:17:30;96290.03;;;14.09;100.00
19023;BME280;35226;48.606;8.858;2023-07-31T04:19:56;96281.72;;;14.09;100.00
19023;BME280;35226;48.606;8.858;2023-07-31T04:22:21;96284.00;;;14.11;100.00
19023;BME280;35226;48.606;8.858;2023-07-31T04:24:47;96281.84;;;14.15;100.00
19023;BME280;35226;48.606;8.858;2023-07-31T04:27:13;96287.69;;;14.17;100.00
19023;BME280;35226;48.606;8.858;2023-07-31T04:29:38;96290.91;;;14.24;100.00
19023;BME280;35226;48.606;8.858;2023-07-31T04:32:05;96295.25;;;14.25;100.00
19023;BME280;35226;48.606;8.858;2023-07-31T04:34:30;96289.03;;;14.30;100.00
19023;BME280;35226;48.606;8.858;2023-07-31T04:36:56;96291.69;;;14.25;100.00
19023;BME280;35226;48.606;8.858;2023-07-31T04:39:21;96295.09;;;14.29;100.00
19023;BME280;35226;48.606;8.858;2023-07-31T04:41:47;96289.53;;;14.29;100.00
19023;BME280;35226;48.606;8.858;2023-07-31T04:44:13;96285.00;;;14.31;100.00
19023;BME280;35226;48.606;8.858;2023-07-31T04:46:39;96288.41;;;14.35;100.00
19023;BME280;35226;48.606;8.858;2023-07-31T04:49:04;96286.56;;;14.32;100.00
19023;BME280;35226;48.606;8.858;2023-07-31T04:51:30;96291.97;;;14.36;100.00
19023;BME280;35226;48.606;8.858;2023-07-31T04:53:56;96281.66;;;14.27;100.00
19023;BME280;35226;48.606;8.858;2023-07-31T04:56:21;96283.00;;;14.41;100.00
19023;BME280;35226;48.606;8.858;2023-07-31T04:58:47;96282.84;;;14.35;100.00
19023;BME280;35226;48.606;8.858;2023-07-31T05:01:12;96289.03;;;14.30;100.00
19023;BME280;35226;48.606;8.858;2023-07-31T05:03:38;96285.47;;;14.48;100.00
19023;BME280;35226;48.606;8.858;2023-07-31T05:06:03;96285.28;;;14.52;100.00
19023;BME280;35226;48.606;8.858;2023-07-31T05:08:29;96286.81;;;14.53;100.00
19023;BME280;35226;48.606;8.858;2023-07-31T05:10:54;96292.81;;;14.60;100.00
19023;BME280;35226;48.606;8.858;2023-07-31T05:13:20;96284.31;;;14.64;100.00
19023;BME280;35226;48.606;8.858;2023-07-31T05:15:45;96273.78;;;14.68;100.00
19023;BME280;35226;48.606;8.858;2023-07-31T05:18:12;96275.75;;;14.76;100.00
19023;BME280;35226;48.606;8.858;2023-07-31T05:20:37;96274.28;;;14.90;100.00
19023;BME280;35226;48.606;8.858;2023-07-31T05:23:03;96275.47;;;14.98;100.00
19023;BME280;35226;48.606;8.858;2023-07-31T05:25:28;96284.75;;;14.95;100.00
19023;BME280;35226;48.606;8.858;2023-07-31T05:27:53;96285.78;;;15.07;100.00
19023;BME280;35226;48.606;8.858;2023-07-31T05:30:19;96279.25;;;15.10;100.00
19023;BME280;35226;48.606;8.858;2023-07-31T05:32:44;96284.47;;;15.17;100.00
19023;BME280;35226;48.606;8.858;2023-07-31T05:35:10;96287.66;;;15.25;100.00
19023;BME280;35226;48.606;8.858;2023-07-31T05:37:35;96286.59;;;15.22;100.00
19023;BME280;35226;48.606;8.858;2023-07-31T05:40:01;96286.66;;;15.37;100.00
19023;BME280;35226;48.606;8.858;2023-07-31T05:42:26;96280.88;;;15.40;100.00
19023;BME280;35226;48.606;8.858;2023-07-31T05:44:52;96288.38;;;15.34;100.00
19023;BME280;35226;48.606;8.858;2023-07-31T05:47:17;96283.44;;;15.53;100.00
19023;BME280;35226;48.606;8.858;2023-07-31T05:49:43;96293.34;;;15.54;100.00
19023;BME280;35226;48.606;8.858;2023-07-31T05:52:09;96284.78;;;15.58;100.00
19023;BME280;35226;48.606;8.858;2023-07-31T05:54:34;96282.69;;;15.67;100.00
19023;BME280;35226;48.606;8.858;2023-07-31T05:57:00;96282.13;;;15.63;100.00
19023;BME280;35226;48.606;8.858;2023-07-31T05:59:25;96284.63;;;15.61;100.00
19023;BME280;35226;48.606;8.858;2023-07-31T06:01:51;96275.97;;;15.59;100.00
19023;BME280;35226;48.606;8.858;2023-07-31T06:04:16;96271.97;;;15.75;100.00
19023;BME280;35226;48.606;8.858;2023-07-31T06:06:42;96270.53;;;15.79;100.00
19023;BME280;35226;48.606;8.858;2023-07-31T06:09:07;96265.34;;;15.87;100.00
19023;BME280;35226;48.606;8.858;2023-07-31T06:11:33;96265.34;;;15.87;100.00
19023;BME280;35226;48.606;8.858;2023-07-31T06:13:58;96271.03;;;15.93;100.00
19023;BME280;35226;48.606;8.858;2023-07-31T06:16:24;96261.13;;;15.91;100.00
19023;BME280;35226;48.606;8.858;2023-07-31T06:18:50;96258.81;;;15.90;100.00
19023;BME280;35226;48.606;8.858;2023-07-31T06:21:16;96263.44;;;16.08;100.00
19023;BME280;35226;48.606;8.858;2023-07-31T06:23:42;96264.88;;;16.18;100.00
19023;BME280;35226;48.606;8.858;2023-07-31T06:26:08;96253.50;;;16.36;100.00
19023;BME280;35226;48.606;8.858;2023-07-31T06:28:33;96257.53;;;16.50;100.00
19023;BME280;35226;48.606;8.858;2023-07-31T06:30:59;96256.00;;;16.63;100.00
19023;BME280;35226;48.606;8.858;2023-07-31T06:33:24;96256.38;;;16.71;100.00
19023;BME280;35226;48.606;8.858;2023-07-31T06:35:50;96252.28;;;16.87;100.00
19023;BME280;35226;48.606;8.858;2023-07-31T06:38:19;96254.88;;;16.90;100.00
19023;BME280;35226;48.606;8.858;2023-07-31T06:40:44;96246.56;;;16.96;100.00
19023;BME280;35226;48.606;8.858;2023-07-31T06:43:10;96256.56;;;17.02;100.00
19023;BME280;35226;48.606;8.858;2023-07-31T06:45:36;96253.16;;;17.13;100.00
19023;BME280;35226;48.606;8.858;2023-07-31T06:48:03;96263.25;;;17.11;100.00
19023;BME280;35226;48.606;8.858;2023-07-31T06:50:29;96270.66;;;17.14;100.00
19023;BME280;35226;48.606;8.858;2023-07-31T06:52:55;96268.41;;;17.18;100.00
19023;BME280;35226;48.606;8.858;2023-07-31T06:55:21;96274.84;;;17.24;100.00
19023;BME280;35226;48.606;8.858;2023-07-31T06:57:52;96274.00;;;17.38;100.00
19023;BME280;35226;48.606;8.858;2023-07-31T07:00:18;96274.56;;;17.42;100.00
19023;BME280;35226;48.606;8.858;2023-07-31T07:02:44;96270.09;;;17.50;100.00
19023;BME280;35226;48.606;8.858;2023-07-31T07:05:13;96268.22;;;17.42;100.00
19023;BME280;35226;48.606;8.858;2023-07-31T07:07:38;96264.72;;;17.47;100.00
19023;BME280;35226;48.606;8.858;2023-07-31T07:10:04;96266.13;;;17.36;100.00
19023;BME280;35226;48.606;8.858;2023-07-31T07:12:31;96266.38;;;17.59;100.00
19023;BME280;35226;48.606;8.858;2023-07-31T07:14:58;96267.63;;;17.78;100.00
19023;BME280;35226;48.606;8.858;2023-07-31T07:17:24;96246.66;;;17.88;100.00
19023;BME280;35226;48.606;8.858;2023-07-31T07:19:50;96252.28;;;17.68;100.00
19023;BME280;35226;48.606;8.858;2023-07-31T07:22:16;96254.47;;;17.84;100.00
19023;BME280;35226;48.606;8.858;2023-07-31T07:24:41;96250.50;;;17.91;100.00
19023;BME280;35226;48.606;8.858;2023-07-31T07:27:07;96253.94;;;17.80;100.00
19023;BME280;35226;48.606;8.858;2023-07-31T07:29:37;96252.00;;;17.66;100.00
19023;BME280;35226;48.606;8.858;2023-07-31T07:32:03;96256.47;;;17.78;100.00
19023;BME280;35226;48.606;8.858;2023-07-31T07:34:29;96244.78;;;17.80;100.00
19023;BME280;35226;48.606;8.858;2023-07-31T07:36:55;96237.13;;;18.00;100.00
19023;BME280;35226;48.606;8.858;2023-07-31T07:39:20;96244.09;;;18.10;100.00
19023;BME280;35226;48.606;8.858;2023-07-31T07:41:46;96250.94;;;18.09;100.00
19023;BME280;35226;48.606;8.858;2023-07-31T07:44:13;96250.75;;;18.19;100.00
19023;BME280;35226;48.606;8.858;2023-07-31T07:46:38;96245.69;;;18.23;100.00
19023;BME280;35226;48.606;8.858;2023-07-31T07:49:04;96250.56;;;18.28;100.00
19023;BME280;35226;48.606;8.858;2023-07-31T07:51:29;96247.41;;;18.46;100.00
19023;BME280;35226;48.606;8.858;2023-07-31T07:53:59;96240.94;;;18.60;100.00
19023;BME280;35226;48.606;8.858;2023-07-31T07:56:27;96234.13;;;18.67;100.00
19023;BME280;35226;48.606;8.858;2023-07-31T07:58:53;96242.13;;;18.54;100.00
19023;BME280;35226;48.606;8.858;2023-07-31T08:01:19;96231.78;;;18.60;100.00
19023;BME280;35226;48.606;8.858;2023-07-31T08:03:45;96238.97;;;18.72;100.00
19023;BME280;35226;48.606;8.858;2023-07-31T08:06:11;96233.94;;;18.81;100.00
19023;BME280;35226;48.606;8.858;2023-07-31T08:08:37;96232.53;;;19.03;100.00
19023;BME280;35226;48.606;8.858;2023-07-31T08:11:03;96221.94;;;19.23;100.00
19023;BME280;35226;48.606;8.858;2023-07-31T08:13:28;96218.16;;;19.32;100.00
19023;BME280;35226;48.606;8.858;2023-07-31T08:15:54;96219.47;;;19.42;100.00
19023;BME280;35226;48.606;8.858;2023-07-31T08:18:20;96217.78;;;19.62;100.00
19023;BME280;35226;48.606;8.858;2023-07-31T08:20:45;96220.59;;;19.67;100.00
19023;BME280;35226;48.606;8.858;2023-07-31T08:23:11;96214.47;;;19.63;100.00
19023;BME280;35226;48.606;8.858;2023-07-31T08:25:37;96210.13;;;19.56;100.00
19023;BME280;35226;48.606;8.858;2023-07-31T08:28:03;96207.34;;;19.79;100.00
19023;BME280;35226;48.606;8.858;2023-07-31T08:30:29;96221.41;;;19.90;100.00
19023;BME280;35226;48.606;8.858;2023-07-31T08:32:55;96215.56;;;20.05;100.00
19023;BME280;35226;48.606;8.858;2023-07-31T08:35:21;96226.00;;;19.99;100.00
19023;BME280;35226;48.606;8.858;2023-07-31T08:37:46;96219.63;;;19.98;100.00
19023;BME280;35226;48.606;8.858;2023-07-31T08:40:12;96214.78;;;20.04;100.00
19023;BME280;35226;48.606;8.858;2023-07-31T08:42:53;96206.91;;;20.25;100.00
19023;BME280;35226;48.606;8.858;2023-07-31T08:45:20;96203.09;;;20.17;100.00
19023;BME280;35226;48.606;8.858;2023-07-31T08:47:50;96215.03;;;20.28;100.00
19023;BME280;35226;48.606;8.858;2023-07-31T08:50:18;96212.50;;;20.14;100.00
19023;BME280;35226;48.606;8.858;2023-07-31T08:52:48;96213.03;;;20.23;100.00
19023;BME280;35226;48.606;8.858;2023-07-31T08:55:14;96217.84;;;20.28;100.00
19023;BME280;35226;48.606;8.858;2023-07-31T08:57:41;96215.34;;;20.36;100.00
19023;BME280;35226;48.606;8.858;2023-07-31T09:00:08;96201.53;;;20.32;100.00
19023;BME280;35226;48.606;8.858;2023-07-31T09:05:06;96188.28;;;20.55;100.00
19023;BME280;35226;48.606;8.858;2023-07-31T09:07:34;96182.13;;;20.57;100.00
19023;BME280;35226;48.606;8.858;2023-07-31T09:10:00;96174.50;;;20.63;100.00
19023;BME280;35226;48.606;8.858;2023-07-31T09:12:25;96173.41;;;20.77;100.00
19023;BME280;35226;48.606;8.858;2023-07-31T09:14:51;96171.41;;;20.66;100.00
19023;BME280;35226;48.606;8.858;2023-07-31T09:17:28;96172.66;;;20.77;100.00
19023;BME280;35226;48.606;8.858;2023-07-31T09:19:54;96172.22;;;20.50;100.00
19023;BME280;35226;48.606;8.858;2023-07-31T09:22:31;96176.31;;;20.27;100.00
19023;BME280;35226;48.606;8.858;2023-07-31T09:25:08;96179.31;;;20.74;100.00
19023;BME280;35226;48.606;8.858;2023-07-31T09:27:59;96179.31;;;20.68;100.00
19023;BME280;35226;48.606;8.858;2023-07-31T09:30:26;96180.06;;;20.85;100.00
19023;BME280;35226;48.606;8.858;2023-07-31T09:33:04;96180.84;;;20.75;100.00
19023;BME280;35226;48.606;8.858;2023-07-31T09:35:33;96167.56;;;20.69;100.00
19023;BME280;35226;48.606;8.858;2023-07-31T09:38:07;96166.53;;;20.84;100.00
19023;BME280;35226;48.606;8.858;2023-07-31T09:40:35;96159.34;;;20.94;100.00
19023;BME280;35226;48.606;8.858;2023-07-31T09:43:03;96152.16;;;20.98;100.00
19023;BME280;35226;48.606;8.858;2023-07-31T09:45:29;96150.06;;;21.21;100.00
19023;BME280;35226;48.606;8.858;2023-07-31T09:47:55;96151.09;;;21.18;100.00
19023;BME280;35226;48.606;8.858;2023-07-31T09:50:24;96138.81;;;21.16;100.00
19023;BME280;35226;48.606;8.858;2023-07-31T09:52:51;96137.03;;;21.24;97.54
19023;BME280;35226;48.606;8.858;2023-07-31T09:55:17;96139.03;;;21.34;97.80
19023;BME280;35226;48.606;8.858;2023-07-31T09:57:48;96132.41;;;21.26;93.88
19023;BME280;35226;48.606;8.858;2023-07-31T10:00:16;96127.81;;;21.29;95.73
19023;BME280;35226;48.606;8.858;2023-07-31T10:02:45;96125.34;;;21.55;98.15
19023;BME280;35226;48.606;8.858;2023-07-31T10:05:15;96123.91;;;21.43;96.56
19023;BME280;35226;48.606;8.858;2023-07-31T10:07:55;96119.72;;;21.91;99.74
19023;BME280;35226;48.606;8.858;2023-07-31T10:10:22;96121.19;;;21.97;90.00
19023;BME280;35226;48.606;8.858;2023-07-31T10:12:49;96114.41;;;22.17;89.67
19023;BME280;35226;48.606;8.858;2023-07-31T10:15:16;96116.66;;;22.24;86.73
19023;BME280;35226;48.606;8.858;2023-07-31T10:17:41;96113.19;;;22.12;84.42
19023;BME280;35226;48.606;8.858;2023-07-31T10:20:07;96115.94;;;22.18;85.22
19023;BME280;35226;48.606;8.858;2023-07-31T10:22:34;96119.47;;;22.24;84.37
19023;BME280;35226;48.606;8.858;2023-07-31T10:25:00;96115.75;;;22.10;87.00
19023;BME280;35226;48.606;8.858;2023-07-31T10:27:26;96110.66;;;22.33;83.00
19023;BME280;35226;48.606;8.858;2023-07-31T10:29:56;96111.88;;;22.13;86.49
19023;BME280;35226;48.606;8.858;2023-07-31T10:32:24;96117.75;;;22.15;90.32
19023;BME280;35226;48.606;8.858;2023-07-31T10:34:51;96113.81;;;22.24;89.91
19023;BME280;35226;48.606;8.858;2023-07-31T10:37:28;96112.78;;;22.27;86.77
19023;BME280;35226;48.606;8.858;2023-07-31T10:40:05;96101.69;;;22.35;86.89
19023;BME280;35226;48.606;8.858;2023-07-31T10:45:00;96084.66;;;22.76;87.84
19023;BME280;35226;48.606;8.858;2023-07-31T10:47:26;96071.59;;;22.97;94.77
19023;BME280;35226;48.606;8.858;2023-07-31T10:49:51;96089.91;;;22.85;82.76
19023;BME280;35226;48.606;8.858;2023-07-31T10:52:21;96085.81;;;22.37;78.54
19023;BME280;35226;48.606;8.858;2023-07-31T10:55:30;96068.91;;;23.23;82.36
19023;BME280;35226;48.606;8.858;2023-07-31T10:57:58;96066.72;;;23.54;74.87
19023;BME280;35226;48.606;8.858;2023-07-31T11:00:30;96062.78;;;24.08;83.34
19023;BME280;35226;48.606;8.858;2023-07-31T11:03:07;96066.91;;;23.75;69.20
19023;BME280;35226;48.606;8.858;2023-07-31T11:10:37;96078.88;;;23.43;74.69
19023;BME280;35226;48.606;8.858;2023-07-31T11:13:06;96073.72;;;23.47;73.28
19023;BME280;35226;48.606;8.858;2023-07-31T11:15:31;96073.19;;;23.11;76.32
19023;BME280;35226;48.606;8.858;2023-07-31T11:17:57;96079.66;;;22.87;75.35
19023;BME280;35226;48.606;8.858;2023-07-31T11:20:29;96082.09;;;22.72;76.69
19023;BME280;35226;48.606;8.858;2023-07-31T11:22:57;96078.19;;;22.81;81.93
19023;BME280;35226;48.606;8.858;2023-07-31T11:25:23;96085.88;;;22.80;81.50
19023;BME280;35226;48.606;8.858;2023-07-31T11:27:48;96077.78;;;22.71;83.11
19023;BME280;35226;48.606;8.858;2023-07-31T11:30:19;96075.59;;;22.83;85.58
19023;BME280;35226;48.606;8.858;2023-07-31T11:32:45;96083.22;;;22.88;87.71
19023;BME280;35226;48.606;8.858;2023-07-31T11:35:14;96082.09;;;22.72;88.74
19023;BME280;35226;48.606;8.858;2023-07-31T11:37:43;96088.97;;;22.52;85.77
19023;BME280;35226;48.606;8.858;2023-07-31T11:40:09;96090.84;;;22.44;85.37
19023;BME280;35226;48.606;8.858;2023-07-31T11:42:35;96093.38;;;22.48;85.61
19023;BME280;35226;48.606;8.858;2023-07-31T11:45:05;96092.09;;;22.49;85.81
19023;BME280;35226;48.606;8.858;2023-07-31T11:47:34;96074.16;;;22.52;91.12
19023;BME280;35226;48.606;8.858;2023-07-31T11:50:01;96064.81;;;22.38;87.47
19023;BME280;35226;48.606;8.858;2023-07-31T11:52:35;96061.25;;;22.38;85.45
19023;BME280;35226;48.606;8.858;2023-07-31T11:55:01;96055.38;;;22.36;91.36
19023;BME280;35226;48.606;8.858;2023-07-31T11:57:28;96049.75;;;22.11;100.00
19023;BME280;35226;48.606;8.858;2023-07-31T11:59:55;96055.91;;;22.10;100.00
19023;BME280;35226;48.606;8.858;2023-07-31T12:02:22;96044.34;;;22.13;100.00
19023;BME280;35226;48.606;8.858;2023-07-31T12:04:47;96054.13;;;22.07;100.00
19023;BME280;35226;48.606;8.858;2023-07-31T12:07:13;96056.19;;;22.06;100.00
19023;BME280;35226;48.606;8.858;2023-07-31T12:09:55;96044.06;;;22.17;100.00
19023;BME280;35226;48.606;8.858;2023-07-31T12:12:22;96043.22;;;21.98;100.00
19023;BME280;35226;48.606;8.858;2023-07-31T12:14:48;96041.06;;;22.09;100.00
19023;BME280;35226;48.606;8.858;2023-07-31T12:17:14;96031.53;;;22.18;100.00
19023;BME280;35226;48.606;8.858;2023-07-31T12:19:40;96031.41;;;22.29;100.00
19023;BME280;35226;48.606;8.858;2023-07-31T12:22:13;96028.94;;;22.63;100.00
19023;BME280;35226;48.606;8.858;2023-07-31T12:24:42;96016.91;;;23.06;98.88
19023;BME280;35226;48.606;8.858;2023-07-31T12:27:13;96018.66;;;23.28;100.00
19023;BME280;35226;48.606;8.858;2023-07-31T12:29:41;96013.06;;;23.73;93.49
19023;BME280;35226;48.606;8.858;2023-07-31T12:34:46;96008.25;;;23.86;91.24
19023;BME280;35226;48.606;8.858;2023-07-31T12:37:11;96007.47;;;23.86;82.89
19023;BME280;35226;48.606;8.858;2023-07-31T12:39:37;95998.53;;;24.40;82.13
19023;BME280;35226;48.606;8.858;2023-07-31T12:42:03;96005.44;;;24.79;75.64
19023;BME280;35226;48.606;8.858;2023-07-31T12:44:28;95987.72;;;24.91;70.05
19023;BME280;35226;48.606;8.858;2023-07-31T12:46:54;95989.06;;;24.77;69.30
19023;BME280;35226;48.606;8.858;2023-07-31T12:49:19;95984.59;;;24.68;73.00
19023;BME280;35226;48.606;8.858;2023-07-31T12:51:44;95976.78;;;24.75;72.65
19023;BME280;35226;48.606;8.858;2023-07-31T12:54:10;95975.03;;;24.71;75.36
19023;BME280;35226;48.606;8.858;2023-07-31T12:56:35;95969.31;;;24.64;74.85
19023;BME280;35226;48.606;8.858;2023-07-31T12:59:01;95961.13;;;24.74;70.84
19023;BME280;35226;48.606;8.858;2023-07-31T13:01:26;95963.34;;;24.67;72.86
19023;BME280;35226;48.606;8.858;2023-07-31T13:03:52;95960.75;;;24.56;75.02
19023;BME280;35226;48.606;8.858;2023-07-31T13:06:17;95954.47;;;24.24;74.09